createdAt,value
2023-12-14T00:01:50.184Z,99963.75
2023-12-14T00:04:16.730Z,99989.78
2023-12-14T00:06:43.252Z,99981.34
2023-12-14T00:09:09.844Z,99994.84
2023-12-14T00:11:40.398Z,100003.53
2023-12-14T00:14:07.290Z,100010.47
2023-12-14T00:16:33.827Z,100001.50
2023-12-14T00:19:00.389Z,100013.09
2023-12-14T00:21:26.871Z,100032.28
2023-12-14T00:23:53.360Z,100029.66
2023-12-14T00:26:19.848Z,100027.63
2023-12-14T00:28:46.363Z,100022.28
2023-12-14T00:31:12.832Z,100023.28
2023-12-14T00:33:39.542Z,100049.56
2023-12-14T00:36:06.088Z,100056.50
2023-12-14T00:38:32.562Z,100050.34
2023-12-14T00:40:59.163Z,100031.84
2023-12-14T00:43:25.601Z,100057.56
2023-12-14T00:45:53.738Z,100057.66
2023-12-14T00:48:20.409Z,100053.00
2023-12-14T00:50:46.790Z,100066.03
2023-12-14T00:53:13.394Z,100047.72
2023-12-14T00:55:39.942Z,100079.50
2023-12-14T00:58:06.462Z,100077.81
2023-12-14T01:00:32.955Z,100079.91
2023-12-14T01:02:59.518Z,100077.75
2023-12-14T01:05:26.029Z,100094.16
2023-12-14T01:07:52.611Z,100099.03
2023-12-14T01:10:19.127Z,100093.34
2023-12-14T01:12:45.584Z,100086.06
2023-12-14T01:15:12.170Z,100107.75
2023-12-14T01:17:39.152Z,100110.94
2023-12-14T01:20:08.210Z,100116.63
2023-12-14T01:22:35.041Z,100089.63
2023-12-14T01:25:01.708Z,100106.91
2023-12-14T01:27:28.167Z,100093.69
2023-12-14T01:29:54.689Z,100124.53
2023-12-14T01:32:21.208Z,100107.84
2023-12-14T01:34:47.692Z,100132.66
2023-12-14T01:37:14.149Z,100137.38
2023-12-14T01:39:40.656Z,100128.44
2023-12-14T01:42:07.164Z,100135.84
2023-12-14T01:44:33.878Z,100136.19
2023-12-14T01:47:00.329Z,100149.03
2023-12-14T01:49:26.884Z,100148.97
2023-12-14T01:51:53.360Z,100156.75
2023-12-14T01:54:19.834Z,100144.59
2023-12-14T01:56:47.569Z,100152.50
2023-12-14T01:59:14.551Z,100161.38
2023-12-14T02:01:48.923Z,100163.19
2023-12-14T02:04:15.951Z,100132.31
2023-12-14T02:06:42.529Z,100158.09
2023-12-14T02:09:09.027Z,100164.47
2023-12-14T02:11:35.685Z,100175.16
2023-12-14T02:14:06.432Z,100176.09
2023-12-14T02:16:33.429Z,100153.78
2023-12-14T02:19:00.045Z,100147.84
2023-12-14T02:21:26.499Z,100175.59
2023-12-14T02:23:53.041Z,100163.63
2023-12-14T02:26:19.577Z,100173.03
2023-12-14T02:28:46.003Z,100189.72
2023-12-14T02:46:16.484Z,100186.88
2023-12-14T02:48:44.672Z,100162.91
2023-12-14T02:51:15.945Z,100174.78
2023-12-14T02:53:43.326Z,100185.72
2023-12-14T02:56:11.429Z,100182.84
2023-12-14T02:58:38.024Z,100183.06
2023-12-14T03:01:05.244Z,100194.28
2023-12-14T03:03:31.777Z,100217.91
2023-12-14T03:05:58.323Z,100225.78
2023-12-14T03:08:24.860Z,100209.84
2023-12-14T03:10:51.367Z,100214.59
2023-12-14T03:13:17.901Z,100215.72
2023-12-14T03:15:44.442Z,100215.94
2023-12-14T03:18:10.998Z,100238.28
2023-12-14T03:20:37.576Z,100227.78
2023-12-14T03:23:04.318Z,100231.28
2023-12-14T03:25:30.886Z,100234.69
2023-12-14T03:27:57.390Z,100214.59
2023-12-14T03:30:23.960Z,100228.59
2023-12-14T03:32:50.555Z,100229.88
2023-12-14T03:35:17.093Z,100249.31
2023-12-14T03:37:43.643Z,100244.84
2023-12-14T03:40:10.413Z,100243.78
2023-12-14T03:42:37.083Z,100249.50
2023-12-14T03:45:04.057Z,100245.88
2023-12-14T03:47:30.519Z,100269.34
2023-12-14T03:49:57.812Z,100254.34
2023-12-14T03:52:24.314Z,100256.88
2023-12-14T03:54:50.809Z,100270.94
2023-12-14T03:57:17.294Z,100268.81
2023-12-14T03:59:43.816Z,100270.22
2023-12-14T04:02:10.419Z,100284.03
2023-12-14T04:04:36.924Z,100287.81
2023-12-14T04:07:03.567Z,100287.00
2023-12-14T04:09:29.991Z,100292.78
2023-12-14T04:11:56.605Z,100298.38
2023-12-14T04:14:23.134Z,100300.47
2023-12-14T04:16:49.652Z,100276.50
2023-12-14T04:19:16.319Z,100304.97
2023-12-14T04:21:42.701Z,100320.75
2023-12-14T04:24:10.443Z,100312.31
2023-12-14T04:26:37.193Z,100325.06
2023-12-14T04:29:03.719Z,100298.53
2023-12-14T04:31:30.237Z,100308.81
2023-12-14T04:33:56.739Z,100327.13
2023-12-14T04:36:23.413Z,100317.03
2023-12-14T04:38:49.875Z,100327.19
2023-12-14T04:41:16.467Z,100309.53
2023-12-14T04:43:42.905Z,100331.97
2023-12-14T04:46:09.421Z,100325.53
2023-12-14T04:48:36.072Z,100316.25
2023-12-14T04:51:02.593Z,100341.63
2023-12-14T04:53:29.054Z,100346.56
2023-12-14T04:55:55.686Z,100325.91
2023-12-14T04:58:22.252Z,100345.22
2023-12-14T05:00:48.776Z,100346.56
2023-12-14T05:03:15.368Z,100361.09
2023-12-14T05:05:41.905Z,100355.41
2023-12-14T05:08:08.413Z,100369.31
2023-12-14T05:10:37.062Z,100369.94
2023-12-14T05:13:04.042Z,100367.38
2023-12-14T05:15:30.427Z,100384.78
2023-12-14T05:17:57.011Z,100359.78
2023-12-14T05:20:23.516Z,100394.06
2023-12-14T05:22:50.079Z,100392.38
2023-12-14T05:25:16.498Z,100404.88
2023-12-14T05:27:43.431Z,100390.22
2023-12-14T05:30:10.364Z,100414.72
2023-12-14T05:32:37.302Z,100410.84
2023-12-14T05:35:04.222Z,100386.28
2023-12-14T05:37:30.694Z,100429.59
2023-12-14T05:39:57.154Z,100418.16
2023-12-14T05:42:24.052Z,100414.00
2023-12-14T05:44:50.607Z,100437.25
2023-12-14T05:47:17.103Z,100441.19
2023-12-14T05:49:44.380Z,100418.78
2023-12-14T05:52:11.836Z,100437.44
2023-12-14T05:54:39.217Z,100435.19
2023-12-14T05:57:05.965Z,100436.84
2023-12-14T05:59:32.906Z,100454.88
2023-12-14T06:02:00.251Z,100441.66
2023-12-14T06:04:28.261Z,100463.25
2023-12-14T06:06:54.756Z,100436.44
2023-12-14T06:09:25.889Z,100469.84
2023-12-14T06:11:52.668Z,100460.69
2023-12-14T06:14:19.416Z,100477.38
2023-12-14T06:16:45.944Z,100460.44
2023-12-14T06:19:13.066Z,100473.69
2023-12-14T06:21:39.534Z,100480.72
2023-12-14T06:24:07.589Z,100493.81
2023-12-14T06:26:34.091Z,100482.59
2023-12-14T06:29:00.671Z,100468.31
2023-12-14T06:31:27.089Z,100492.44
2023-12-14T06:33:54.211Z,100476.06
2023-12-14T06:36:21.497Z,100470.16
2023-12-14T06:38:48.030Z,100480.41
2023-12-14T06:41:25.027Z,100480.41
2023-12-14T06:43:52.301Z,100503.41
2023-12-14T06:46:19.233Z,100501.88
2023-12-14T06:48:46.401Z,100518.34
2023-12-14T06:51:13.386Z,100526.31
2023-12-14T06:53:44.533Z,100541.22
2023-12-14T06:56:12.324Z,100530.19
2023-12-14T06:58:43.809Z,100540.25
2023-12-14T07:01:17.821Z,100536.88
2023-12-14T07:03:53.257Z,100524.56
2023-12-14T07:06:20.835Z,100542.22
2023-12-14T07:08:59.973Z,100511.09
2023-12-14T07:11:30.608Z,100533.47
2023-12-14T07:13:57.251Z,100562.84
2023-12-14T07:16:24.292Z,100584.69
2023-12-14T07:18:50.911Z,100577.19
2023-12-14T07:21:18.069Z,100590.28
2023-12-14T07:23:47.032Z,100555.66
2023-12-14T07:26:13.677Z,100547.16
2023-12-14T07:28:40.224Z,100599.16
2023-12-14T07:31:07.072Z,100583.63
2023-12-14T07:33:51.570Z,100591.53
2023-12-14T07:36:18.554Z,100570.00
2023-12-14T07:38:47.482Z,100588.59
2023-12-14T07:41:14.248Z,100580.56
2023-12-14T07:43:40.882Z,100623.78
2023-12-14T07:46:07.348Z,100635.53
2023-12-14T07:48:34.148Z,100608.72
2023-12-14T07:51:00.965Z,100616.66
2023-12-14T07:53:27.981Z,100637.03
2023-12-14T07:55:54.610Z,100609.25
2023-12-14T07:58:22.742Z,100626.03
2023-12-14T08:13:26.012Z,100670.00
2023-12-14T08:15:53.465Z,100660.78
2023-12-14T08:18:48.566Z,100653.31
2023-12-14T08:21:17.950Z,100644.03
2023-12-14T08:23:52.625Z,100646.53
2023-12-14T08:27:07.040Z,100631.78
2023-12-14T08:29:38.516Z,100670.88
2023-12-14T08:32:05.798Z,100658.03
2023-12-14T08:34:32.506Z,100633.22
2023-12-14T08:36:59.117Z,100707.56
2023-12-14T08:39:28.303Z,100676.88
2023-12-14T08:41:54.968Z,100707.97
2023-12-14T08:44:21.547Z,100726.19
2023-12-14T08:46:51.137Z,100692.56
2023-12-14T08:49:49.245Z,100678.06
2023-12-14T08:52:53.254Z,100683.16
2023-12-14T08:55:38.593Z,100705.22
2023-12-14T08:58:17.297Z,100675.03
2023-12-14T09:00:53.511Z,100726.84
2023-12-14T09:03:32.402Z,100745.41
2023-12-14T09:06:00.224Z,100705.03
2023-12-14T09:16:00.297Z,100773.59
2023-12-14T09:18:27.183Z,100765.09
2023-12-14T09:20:53.746Z,100795.13
2023-12-14T09:23:20.509Z,100769.34
2023-12-14T09:26:01.451Z,100745.00
2023-12-14T09:28:28.359Z,100786.19
2023-12-14T09:30:57.597Z,100754.84
2023-12-14T09:33:24.313Z,100776.31
2023-12-14T09:35:50.965Z,100804.47
2023-12-14T09:38:20.422Z,100794.47
2023-12-14T09:40:47.091Z,100793.72
2023-12-14T09:43:15.160Z,100810.03
2023-12-14T09:45:46.970Z,100778.53
2023-12-14T09:48:14.410Z,100804.28
2023-12-14T09:50:41.909Z,100800.28
2023-12-14T09:53:09.447Z,100799.63
2023-12-14T09:55:36.255Z,100802.69
2023-12-14T09:58:07.641Z,100811.75
2023-12-14T10:00:40.050Z,100769.81
2023-12-14T10:03:25.388Z,100807.13
2023-12-14T10:17:06.816Z,100803.44
2023-12-14T10:24:40.749Z,100847.44
2023-12-14T10:38:26.955Z,100819.09
2023-12-14T10:40:57.516Z,100832.00
2023-12-14T10:50:52.847Z,100831.91
2023-12-14T10:53:38.931Z,100857.69
2023-12-14T11:00:59.156Z,100881.38
2023-12-14T11:03:52.480Z,100866.03
2023-12-14T11:06:25.648Z,100850.75
2023-12-14T11:08:54.260Z,100881.44
2023-12-14T11:15:41.405Z,100860.13
2023-12-14T11:18:11.871Z,100898.56
2023-12-14T11:20:58.818Z,100898.75
2023-12-14T11:23:25.997Z,100899.06
2023-12-14T11:25:58.083Z,100872.09
2023-12-14T11:28:27.602Z,100876.63
2023-12-14T11:30:57.614Z,100897.28
2023-12-14T11:33:25.344Z,100901.53
2023-12-14T11:35:53.941Z,100903.47
2023-12-14T11:38:22.701Z,100908.69
2023-12-14T11:41:09.047Z,100926.09
2023-12-14T11:43:46.067Z,100912.38
2023-12-14T11:46:20.197Z,100916.97
2023-12-14T11:48:47.686Z,100922.25
2023-12-14T11:51:14.538Z,100883.78
2023-12-14T11:53:41.803Z,100928.81
2023-12-14T11:56:09.073Z,100932.06
2023-12-14T11:58:36.215Z,100936.53
2023-12-14T12:01:35.187Z,100915.88
2023-12-14T12:04:14.325Z,100915.63
2023-12-14T12:06:42.779Z,100934.97
2023-12-14T12:09:12.059Z,100943.19
2023-12-14T12:14:50.722Z,100948.28
2023-12-14T12:17:22.995Z,100951.50
2023-12-14T12:19:49.957Z,100961.81
2023-12-14T12:22:16.876Z,100958.53
2023-12-14T12:24:53.070Z,100973.47
2023-12-14T12:27:31.798Z,100959.84
2023-12-14T12:29:58.907Z,100977.03
2023-12-14T12:32:31.105Z,100945.38
2023-12-14T12:35:01.720Z,100970.31
2023-12-14T12:37:31.035Z,100950.91
2023-12-14T12:39:57.569Z,100966.75
2023-12-14T12:42:26.518Z,100975.19
2023-12-14T12:44:53.483Z,100983.44
2023-12-14T12:47:20.267Z,100969.84
2023-12-14T12:49:48.621Z,100962.81
2023-12-14T12:52:16.901Z,101004.47
2023-12-14T12:54:43.706Z,100964.63
2023-12-14T12:57:10.790Z,100994.03
2023-12-14T12:59:39.264Z,100968.88
2023-12-14T13:02:46.412Z,101016.63
2023-12-14T13:14:27.349Z,101009.63
2023-12-14T13:17:20.445Z,101045.38
2023-12-14T13:19:53.671Z,100987.31
2023-12-14T13:22:20.673Z,100997.66
2023-12-14T13:24:47.451Z,101007.38
2023-12-14T13:27:44.548Z,101007.38
2023-12-14T14:43:30.581Z,101187.56
2023-12-14T14:45:59.391Z,101195.53
2023-12-14T14:48:38.532Z,101186.91
2023-12-14T14:51:09.418Z,101195.84
2023-12-14T14:54:02.420Z,101196.16
2023-12-14T15:04:59.625Z,101240.38
2023-12-14T15:07:30.172Z,101225.69
2023-12-14T15:10:02.725Z,101199.34
2023-12-14T15:13:03.423Z,101218.66
2023-12-14T15:19:43.200Z,101205.25
2023-12-14T15:22:34.999Z,101220.22
2023-12-14T15:25:09.262Z,101216.00
2023-12-14T15:27:50.374Z,101218.34
2023-12-14T15:30:20.504Z,101266.97
2023-12-14T15:32:47.331Z,101217.22
2023-12-14T15:35:14.673Z,101246.75
2023-12-14T16:01:15.326Z,101276.19
2023-12-14T16:37:57.920Z,101332.19
2023-12-14T16:48:12.757Z,101322.50
2023-12-14T16:50:39.774Z,101363.38
2023-12-14T16:53:11.309Z,101350.34
2023-12-14T16:55:38.332Z,101367.28
2023-12-14T16:58:05.060Z,101372.28
2023-12-14T17:00:31.634Z,101371.78
2023-12-14T17:02:58.139Z,101402.56
2023-12-14T17:05:24.831Z,101417.16
2023-12-14T17:07:51.363Z,101415.38
2023-12-14T17:10:18.216Z,101398.13
2023-12-14T17:12:44.733Z,101394.59
2023-12-14T17:15:13.876Z,101428.28
2023-12-14T17:17:41.516Z,101421.47
2023-12-14T17:20:08.748Z,101426.00
2023-12-14T17:22:37.384Z,101447.94
2023-12-14T17:25:05.352Z,101413.31
2023-12-14T17:27:35.911Z,101434.75
2023-12-14T17:30:02.763Z,101453.69
2023-12-14T17:32:29.463Z,101460.53
2023-12-14T17:34:56.263Z,101471.41
2023-12-14T17:37:22.956Z,101425.16
2023-12-14T17:39:49.571Z,101477.00
2023-12-14T17:42:19.585Z,101462.03
2023-12-14T17:44:47.200Z,101454.41
2023-12-14T17:47:13.901Z,101480.88
2023-12-14T17:49:40.373Z,101478.75
2023-12-14T17:52:07.128Z,101487.41
2023-12-14T17:54:33.752Z,101438.88
2023-12-14T17:57:00.227Z,101498.63
2023-12-14T17:59:26.948Z,101473.28
2023-12-14T18:01:55.028Z,101441.09
2023-12-14T18:04:22.514Z,101453.22
2023-12-14T18:07:04.975Z,101451.47
2023-12-14T18:09:32.025Z,101467.81
2023-12-14T18:11:59.651Z,101481.44
2023-12-14T18:14:29.219Z,101495.72
2023-12-14T18:17:04.946Z,101494.84
2023-12-14T18:19:31.673Z,101514.81
2023-12-14T18:21:58.290Z,101528.97
2023-12-14T18:24:25.675Z,101513.38
2023-12-14T18:26:52.346Z,101492.31
2023-12-14T18:29:18.953Z,101536.53
2023-12-14T18:31:45.553Z,101520.19
2023-12-14T18:34:12.201Z,101548.69
2023-12-14T18:36:41.945Z,101565.13
2023-12-14T18:39:08.577Z,101541.56
2023-12-14T18:41:35.479Z,101574.22
2023-12-14T18:44:02.407Z,101538.97
2023-12-14T18:46:29.343Z,101569.38
2023-12-14T18:48:56.120Z,101560.88
2023-12-14T18:51:22.932Z,101538.13
2023-12-14T18:53:49.541Z,101582.63
2023-12-14T18:56:16.412Z,101569.91
2023-12-14T18:58:43.198Z,101580.50
2023-12-14T19:01:12.563Z,101558.94
2023-12-14T19:03:40.400Z,101595.16
2023-12-14T19:06:10.521Z,101586.59
2023-12-14T19:08:39.825Z,101598.03
2023-12-14T19:11:06.753Z,101601.84
2023-12-14T19:13:33.656Z,101597.91
2023-12-14T19:16:00.230Z,101595.34
2023-12-14T19:18:27.003Z,101568.28
2023-12-14T19:20:53.600Z,101614.63
2023-12-14T19:23:20.258Z,101609.06
2023-12-14T19:25:46.958Z,101598.75
2023-12-14T19:28:13.774Z,101628.72
2023-12-14T19:30:40.317Z,101620.88
2023-12-14T19:33:06.962Z,101631.50
2023-12-14T19:35:33.583Z,101629.91
2023-12-14T19:38:00.111Z,101635.44
2023-12-14T19:40:26.750Z,101637.41
2023-12-14T19:42:53.215Z,101640.97
2023-12-14T19:45:19.732Z,101629.41
2023-12-14T19:47:46.606Z,101623.94
2023-12-14T19:50:16.464Z,101613.19
2023-12-14T19:52:44.596Z,101635.06
2023-12-14T19:55:13.409Z,101613.00
2023-12-14T19:57:40.411Z,101644.13
2023-12-14T20:00:12.473Z,101623.47
2023-12-14T20:02:39.797Z,101657.63
2023-12-14T20:05:20.797Z,101630.13
2023-12-14T20:07:52.857Z,101655.22
2023-12-14T20:13:10.736Z,101624.78
2023-12-14T20:15:40.736Z,101665.19
2023-12-14T20:18:09.513Z,101663.81
2023-12-14T20:20:37.288Z,101662.22
2023-12-14T20:23:06.089Z,101660.31
2023-12-14T20:25:38.074Z,101673.56
2023-12-14T20:28:07.850Z,101653.09
2023-12-14T20:30:34.825Z,101680.94
2023-12-14T20:33:04.172Z,101666.94
2023-12-14T20:35:30.992Z,101673.09
2023-12-14T20:37:57.672Z,101700.06
2023-12-14T20:40:24.258Z,101718.16
2023-12-14T20:42:50.843Z,101688.97
2023-12-14T20:45:18.112Z,101720.19
2023-12-14T20:47:53.318Z,101716.41
2023-12-14T20:50:20.518Z,101680.56
2023-12-14T20:52:48.935Z,101719.81
2023-12-14T20:55:15.995Z,101725.03
2023-12-14T20:57:44.827Z,101746.69
2023-12-14T21:00:14.749Z,101722.44
2023-12-14T21:02:41.981Z,101735.41
2023-12-14T21:05:12.041Z,101711.16
2023-12-14T21:07:39.326Z,101715.44
2023-12-14T21:10:13.046Z,101726.09
2023-12-14T21:12:51.017Z,101719.97
2023-12-14T21:15:25.490Z,101747.03
2023-12-14T21:17:57.675Z,101736.66
2023-12-14T21:20:29.481Z,101734.50
2023-12-14T21:22:56.639Z,101767.88
2023-12-14T21:25:48.106Z,101751.31
2023-12-14T21:28:15.301Z,101741.50
2023-12-14T21:30:45.125Z,101735.31
2023-12-14T21:33:12.314Z,101763.19
2023-12-14T21:35:39.478Z,101726.25
2023-12-14T21:38:06.165Z,101722.75
2023-12-14T21:40:32.664Z,101775.16
2023-12-14T21:42:59.191Z,101770.44
2023-12-14T21:45:26.743Z,101768.38
2023-12-14T21:47:55.414Z,101797.06
2023-12-14T21:50:22.069Z,101790.03
2023-12-14T21:52:53.422Z,101794.28
2023-12-14T21:55:28.155Z,101771.47
2023-12-14T21:57:54.769Z,101796.69
2023-12-14T22:00:21.318Z,101814.00
2023-12-14T22:05:39.055Z,101779.09
2023-12-14T22:08:05.655Z,101784.25
2023-12-14T22:10:47.634Z,101782.25
2023-12-14T22:13:14.191Z,101787.72
2023-12-14T22:15:40.771Z,101795.06
2023-12-14T22:18:09.450Z,101805.66
2023-12-14T22:20:36.507Z,101812.13
2023-12-14T22:23:06.152Z,101792.09
2023-12-14T22:25:32.956Z,101778.69
2023-12-14T22:27:59.493Z,101802.97
2023-12-14T22:30:26.060Z,101792.47
2023-12-14T22:32:52.613Z,101834.38
2023-12-14T22:35:19.247Z,101820.06
2023-12-14T22:37:45.679Z,101837.31
2023-12-14T22:40:12.525Z,101841.28
2023-12-14T22:42:39.006Z,101837.63
2023-12-14T22:45:06.138Z,101843.47
2023-12-14T22:47:33.170Z,101832.94
2023-12-14T22:49:59.821Z,101837.56
2023-12-14T22:52:27.750Z,101844.50
2023-12-14T22:54:54.285Z,101847.81
2023-12-14T22:57:20.900Z,101835.56
2023-12-14T22:59:47.325Z,101877.53
2023-12-14T23:02:13.917Z,101846.91
2023-12-14T23:04:41.083Z,101885.03
2023-12-14T23:07:07.728Z,101876.44
2023-12-14T23:09:34.228Z,101893.63
2023-12-14T23:12:00.964Z,101876.53
2023-12-14T23:14:27.557Z,101891.25
2023-12-14T23:16:54.097Z,101900.69
2023-12-14T23:19:20.720Z,101874.78
2023-12-14T23:21:47.233Z,101910.38
2023-12-14T23:24:13.767Z,101879.16
2023-12-14T23:26:40.323Z,101852.94
2023-12-14T23:29:06.897Z,101893.06
2023-12-14T23:31:33.378Z,101914.69
2023-12-14T23:33:59.990Z,101885.63
2023-12-14T23:36:27.285Z,101914.06
2023-12-14T23:38:53.875Z,101912.63
2023-12-14T23:41:20.443Z,101919.38
2023-12-14T23:43:47.082Z,101908.34
2023-12-14T23:46:14.674Z,101912.72
2023-12-14T23:48:44.949Z,101933.63
2023-12-14T23:51:11.680Z,101900.38
2023-12-14T23:53:38.243Z,101936.06
2023-12-14T23:56:05.168Z,101924.72
2023-12-14T23:58:31.748Z,101938.66
